Time;durP1;ratioP1;P1;durP2;ratioP2;P2;SDS_P1;SDS_P2;PMS_P1;PMS_P2;Temp;Humidity;BMP_temperature;BMP_pressure;BME280_temperature;BME280_humidity;BME280_pressure;Samples;Min_cycle;Max_cycle;Signal;HPM_P1;HPM_P2
2023/02/21 02:16:18;;;;;;;5.27;3.83;;;7.00;99.90;;;;;;5012701;28;20179;-59
2023/02/21 02:19:02;;;;;;;5.40;3.87;;;7.10;99.90;;;;;;5011644;28;20172;-54
2023/02/21 02:21:58;;;;;;;4.20;3.80;;;7.10;99.90;;;;;;5012529;28;20200;-59
2023/02/21 02:24:53;;;;;;;5.47;3.27;;;7.30;99.90;;;;;;5012522;28;20176;-59
2023/02/21 02:27:44;;;;;;;4.00;3.40;;;7.10;99.90;;;;;;5012286;28;20231;-54
2023/02/21 02:30:18;;;;;;;5.10;3.50;;;7.60;99.90;;;;;;5012494;28;20239;-58
2023/02/21 02:33:05;;;;;;;4.47;3.53;;;7.60;99.90;;;;;;5012188;28;20192;-56
2023/02/21 02:35:34;;;;;;;3.80;3.40;;;7.70;99.90;;;;;;5012418;28;20172;-58
2023/02/21 02:38:17;;;;;;;3.77;3.20;;;7.60;99.90;;;;;;5012077;28;20614;-56
2023/02/21 02:40:59;;;;;;;4.43;3.60;;;7.70;99.90;;;;;;5012270;28;20181;-56
2023/02/21 02:43:39;;;;;;;4.30;3.60;;;7.60;99.90;;;;;;5012144;28;20290;-59
2023/02/21 02:46:08;;;;;;;3.90;3.50;;;7.70;99.90;;;;;;5007324;28;20187;-55
2023/02/21 02:48:44;;;;;;;4.57;3.60;;;7.80;99.90;;;;;;5011670;28;20188;-57
2023/02/21 02:51:14;;;;;;;6.97;3.50;;;7.90;99.90;;;;;;5012006;28;20226;-56
2023/02/21 02:53:40;;;;;;;4.53;3.67;;;7.60;99.90;;;;;;4994429;28;20176;-57
2023/02/21 02:56:16;;;;;;;4.77;3.70;;;7.60;99.90;;;;;;5011903;28;20180;-57
2023/02/21 02:58:51;;;;;;;6.23;4.20;;;;;;;;;;5011864;28;20231;-58
2023/02/21 03:01:29;;;;;;;5.13;3.83;;;;;;;;;;5001861;28;20206;-59
2023/02/21 03:03:55;;;;;;;4.80;3.83;;;;;;;;;;5008526;28;20263;-54
2023/02/21 03:06:39;;;;;;;5.80;3.80;;;7.40;99.90;;;;;;5011584;28;20319;-51
2023/02/21 03:09:24;;;;;;;5.10;4.10;;;;;;;;;;5004731;28;20852;-52
2023/02/21 03:12:07;;;;;;;4.50;4.10;;;7.30;99.90;;;;;;5011343;28;20282;-56
2023/02/21 03:14:39;;;;;;;5.77;3.97;;;;;;;;;;5011550;28;20180;-50
2023/02/21 03:17:09;;;;;;;5.30;3.53;;;7.30;99.90;;;;;;5008746;28;20196;-52
2023/02/21 03:19:39;;;;;;;6.33;4.10;;;7.40;99.90;;;;;;5010584;28;20212;-54
2023/02/21 03:22:09;;;;;;;5.87;4.17;;;7.20;99.90;;;;;;5010456;28;20671;-54
2023/02/21 03:24:37;;;;;;;5.90;4.03;;;7.30;99.90;;;;;;5010107;28;20300;-57
2023/02/21 03:27:06;;;;;;;5.43;4.30;;;7.30;99.90;;;;;;5010720;28;20232;-51
2023/02/21 03:29:33;;;;;;;4.37;3.80;;;7.40;99.90;;;;;;5010635;28;20254;-52
2023/02/21 03:34:41;;;;;;;4.60;4.00;;;7.30;99.90;;;;;;5007999;28;20176;-54
2023/02/21 03:37:16;;;;;;;4.83;3.90;;;7.40;99.90;;;;;;5009552;28;20176;-52
2023/02/21 03:39:42;;;;;;;4.83;3.47;;;7.40;99.90;;;;;;5011107;28;20213;-56
2023/02/21 03:42:07;;;;;;;4.40;3.80;;;7.50;99.90;;;;;;5010580;28;20262;-53
2023/02/21 03:44:33;;;;;;;5.77;4.30;;;;;;;;;;5011261;28;20256;-50
2023/02/21 03:46:59;;;;;;;5.90;3.80;;;;;;;;;;5010945;28;20188;-50
2023/02/21 03:49:25;;;;;;;5.30;3.90;;;7.50;99.90;;;;;;5010954;28;20238;-52
2023/02/21 03:51:50;;;;;;;4.93;4.03;;;;;;;;;;5010913;28;20196;-50
2023/02/21 03:54:16;;;;;;;5.53;4.10;;;;;;;;;;5011204;28;20172;-54
2023/02/21 03:56:42;;;;;;;4.83;3.47;;;;;;;;;;5011048;28;20247;-53
2023/02/21 03:59:08;;;;;;;4.90;4.03;;;7.00;99.90;;;;;;5010977;28;20283;-52
2023/02/21 04:01:34;;;;;;;5.43;4.53;;;;;;;;;;5010921;28;20259;-53
2023/02/21 04:04:00;;;;;;;7.73;5.10;;;;;;;;;;5010317;28;20219;-55
2023/02/21 04:06:26;;;;;;;5.93;5.03;;;;;;;;;;5010992;28;20598;-50
2023/02/21 04:08:52;;;;;;;7.53;5.10;;;;;;;;;;5009888;28;20667;-52
2023/02/21 04:11:20;;;;;;;5.87;4.73;;;5.60;99.90;;;;;;5010855;28;20215;-54
2023/02/21 04:13:45;;;;;;;5.87;4.50;;;7.10;99.90;;;;;;5010985;28;20173;-51
2023/02/21 04:16:11;;;;;;;5.77;4.73;;;7.10;99.90;;;;;;5010914;28;20666;-56
2023/02/21 04:18:37;;;;;;;7.47;4.30;;;;;;;;;;5010517;28;20177;-54
2023/02/21 04:21:03;;;;;;;5.50;4.20;;;;;;;;;;5010860;28;20187;-53
2023/02/21 04:23:28;;;;;;;5.10;4.40;;;7.00;99.90;;;;;;5006517;28;20200;-51
2023/02/21 04:25:54;;;;;;;4.47;3.80;;;7.30;99.90;;;;;;4999430;28;20193;-54
2023/02/21 04:28:20;;;;;;;4.00;3.60;;;;;;;;;;5007080;28;20558;-47
2023/02/21 04:30:46;;;;;;;4.60;3.77;;;;;;;;;;5010891;28;20304;-50
2023/02/21 04:33:12;;;;;;;4.30;3.20;;;;;;;;;;5009086;28;20192;-53
2023/02/21 04:35:38;;;;;;;4.40;3.40;;;;;;;;;;5010654;28;20180;-54
2023/02/21 04:38:04;;;;;;;4.00;3.40;;;;;;;;;;5010420;28;20183;-49
2023/02/21 04:40:29;;;;;;;4.33;3.53;;;7.50;99.90;;;;;;5008205;28;20556;-53
2023/02/21 04:42:55;;;;;;;5.00;3.63;;;7.60;99.90;;;;;;5008345;28;20269;-53
2023/02/21 04:45:21;;;;;;;3.87;3.47;;;;;;;;;;5010803;28;20543;-50
2023/02/21 04:47:47;;;;;;;4.00;3.60;;;;;;;;;;5013175;28;20183;-52
2023/02/21 04:50:12;;;;;;;3.97;3.33;;;;;;;;;;5013591;28;20239;-54
2023/02/21 04:52:39;;;;;;;5.37;3.70;;;;;;;;;;5014249;28;20267;-56
2023/02/21 04:55:06;;;;;;;5.00;3.70;;;7.70;99.90;;;;;;5014373;28;20172;-55
2023/02/21 04:57:32;;;;;;;5.27;3.67;;;7.30;99.90;;;;;;5011541;28;20266;-52
2023/02/21 04:59:58;;;;;;;5.07;3.60;;;7.50;99.90;;;;;;5011912;28;20616;-51
2023/02/21 05:02:25;;;;;;;4.63;3.63;;;;;;;;;;5013759;28;20208;-55
2023/02/21 05:04:50;;;;;;;4.53;3.53;;;7.60;99.90;;;;;;5013290;28;20187;-49
2023/02/21 05:07:16;;;;;;;4.70;3.30;;;7.30;99.90;;;;;;5012700;28;20264;-51
2023/02/21 05:09:42;;;;;;;4.43;3.40;;;7.40;99.90;;;;;;5013898;28;20215;-55
2023/02/21 05:12:10;;;;;;;4.63;3.90;;;;;;;;;;5013845;28;20706;-54
2023/02/21 05:14:39;;;;;;;5.03;3.70;;;7.20;99.90;;;;;;5013939;28;20259;-51
2023/02/21 05:17:05;;;;;;;4.83;3.47;;;6.80;99.90;;;;;;5013292;28;20179;-52
2023/02/21 05:19:31;;;;;;;4.10;3.70;;;7.30;99.90;;;;;;5013900;28;20243;-54
2023/02/21 05:21:58;;;;;;;4.13;3.30;;;7.10;99.90;;;;;;5013632;28;20216;-49
2023/02/21 05:24:25;;;;;;;6.37;4.10;;;7.20;99.90;;;;;;5013707;28;20221;-53
2023/02/21 05:26:51;;;;;;;4.87;3.70;;;6.90;99.90;;;;;;5013476;28;20272;-51
2023/02/21 05:29:17;;;;;;;5.17;3.87;;;7.10;99.90;;;;;;5013666;28;20232;-54
2023/02/21 05:31:44;;;;;;;5.97;3.60;;;;;;;;;;5010681;28;20235;-49
2023/02/21 05:34:10;;;;;;;6.07;3.47;;;;;;;;;;5011643;28;20184;-51
2023/02/21 05:36:36;;;;;;;6.23;3.80;;;7.30;99.90;;;;;;5013416;28;20255;-49
2023/02/21 05:39:01;;;;;;;4.50;3.70;;;7.10;99.90;;;;;;5013351;28;20584;-49
2023/02/21 05:41:27;;;;;;;4.43;3.50;;;7.20;99.90;;;;;;5013278;28;20208;-52
2023/02/21 05:43:53;;;;;;;4.07;3.50;;;;;;;;;;5013266;28;20259;-55
2023/02/21 05:46:27;;;;;;;3.93;3.50;;;7.10;99.90;;;;;;5013182;28;20185;-52
2023/02/21 05:48:54;;;;;;;4.27;3.57;;;7.20;99.90;;;;;;5013000;28;20195;-57
2023/02/21 05:51:20;;;;;;;3.77;3.37;;;7.50;99.90;;;;;;5013152;28;20347;-55
2023/02/21 05:53:47;;;;;;;5.63;3.87;;;6.90;99.90;;;;;;4999732;28;20177;-53
2023/02/21 05:56:13;;;;;;;4.70;3.53;;;7.00;99.90;;;;;;5006341;28;20565;-55
2023/02/21 05:58:39;;;;;;;5.13;3.70;;;6.90;99.90;;;;;;5007360;28;20540;-53
2023/02/21 06:01:05;;;;;;;4.80;3.80;;;6.90;99.90;;;;;;5009985;28;20188;-55
2023/02/21 06:03:31;;;;;;;3.97;3.57;;;;;;;;;;5024805;23;20267;-55
2023/02/21 06:05:57;;;;;;;4.37;3.57;;;7.10;99.90;;;;;;4985648;28;20173;-52
2023/02/21 06:08:24;;;;;;;3.80;3.27;;;;;;;;;;4989643;28;20185;-53
2023/02/21 06:10:50;;;;;;;4.60;3.60;;;;;;;;;;4992599;28;20547;-53
2023/02/21 06:13:15;;;;;;;4.23;3.60;;;6.80;99.90;;;;;;4992924;28;20189;-53
2023/02/21 06:15:41;;;;;;;6.10;3.90;;;6.90;99.90;;;;;;4993462;28;20177;-53
2023/02/21 06:18:07;;;;;;;5.07;3.97;;;6.60;99.90;;;;;;4975433;28;20177;-53
2023/02/21 06:20:33;;;;;;;6.53;3.97;;;;;;;;;;4988310;28;20655;-53
2023/02/21 06:22:58;;;;;;;4.10;3.70;;;6.80;99.90;;;;;;4992997;28;20305;-54
2023/02/21 06:25:24;;;;;;;5.30;4.43;;;;;;;;;;4993031;28;20264;-53
2023/02/21 06:27:50;;;;;;;4.60;4.03;;;;;;;;;;4992773;28;20180;-52
2023/02/21 06:30:16;;;;;;;4.80;4.30;;;;;;;;;;4993026;28;20208;-54
2023/02/21 06:32:42;;;;;;;5.50;4.60;;;;;;;;;;4992689;28;20238;-54
2023/02/21 06:35:08;;;;;;;4.70;4.20;;;6.90;99.90;;;;;;4992960;28;20242;-53
2023/02/21 06:37:34;;;;;;;5.83;4.50;;;7.20;99.90;;;;;;4988116;28;20248;-52
2023/02/21 06:40:00;;;;;;;6.40;4.30;;;;;;;;;;5000629;28;20192;-52
2023/02/21 06:42:27;;;;;;;5.77;4.80;;;;;;;;;;5000504;28;20695;-54
2023/02/21 06:44:53;;;;;;;5.40;4.60;;;;;;;;;;5000592;28;20721;-51
2023/02/21 06:47:18;;;;;;;8.13;7.33;;;;;;;;;;5003674;28;20212;-56
2023/02/21 06:49:44;;;;;;;8.17;6.67;;;;;;;;;;5011446;28;20224;-54
2023/02/21 06:52:10;;;;;;;5.03;4.20;;;;;;;;;;5011212;28;20192;-55
2023/02/21 06:54:37;;;;;;;4.67;4.17;;;;;;;;;;5012245;28;20177;-56
2023/02/21 06:57:04;;;;;;;4.77;4.13;;;;;;;;;;5012120;28;20201;-56
2023/02/21 06:59:30;;;;;;;5.60;4.40;;;7.10;99.90;;;;;;5011959;28;20591;-53
2023/02/21 07:01:56;;;;;;;5.90;3.73;;;7.20;99.90;;;;;;5011587;28;20207;-53
2023/02/21 07:04:22;;;;;;;5.50;4.23;;;7.30;99.90;;;;;;4993710;28;20184;-53
2023/02/21 07:06:48;;;;;;;4.50;3.90;;;7.20;99.90;;;;;;5011845;28;20252;-52
2023/02/21 07:09:13;;;;;;;41.70;26.03;;;7.30;99.90;;;;;;5010970;28;20247;-52
2023/02/21 07:11:39;;;;;;;9.83;6.67;;;7.50;99.90;;;;;;4998505;28;20682;-54
2023/02/21 07:14:05;;;;;;;8.30;4.30;;;;;;;;;;4992627;28;20306;-54
2023/02/21 07:16:31;;;;;;;4.90;3.83;;;;;;;;;;4991984;28;20170;-53
2023/02/21 07:18:57;;;;;;;5.57;4.17;;;;;;;;;;4991962;28;20192;-54
2023/02/21 07:21:25;;;;;;;7.90;6.07;;;7.70;99.90;;;;;;4992000;28;20189;-54
2023/02/21 07:23:51;;;;;;;32.37;28.47;;;;;;;;;;4992208;28;20173;-53
2023/02/21 07:26:17;;;;;;;8.43;5.70;;;;;;;;;;4987853;28;20188;-54
2023/02/21 07:28:45;;;;;;;52.43;42.33;;;7.40;99.90;;;;;;4974040;28;20260;-52
2023/02/21 07:31:11;;;;;;;9.30;8.17;;;;;;;;;;4984446;28;20181;-54
2023/02/21 07:33:37;;;;;;;6.50;4.80;;;;;;;;;;4990825;28;20204;-55
2023/02/21 07:36:03;;;;;;;5.23;4.37;;;7.70;99.90;;;;;;4973974;28;20667;-54
2023/02/21 07:38:29;;;;;;;6.00;4.23;;;7.60;99.90;;;;;;4990569;28;20204;-52
2023/02/21 07:41:00;;;;;;;5.90;4.60;;;7.50;99.90;;;;;;4991799;28;20189;-56
2023/02/21 07:43:28;;;;;;;4.87;4.20;;;7.40;99.90;;;;;;4980842;28;20201;-54
2023/02/21 07:45:54;;;;;;;5.67;4.40;;;7.50;99.90;;;;;;4988115;28;20185;-53
2023/02/21 07:48:20;;;;;;;5.50;4.47;;;7.10;99.90;;;;;;4991031;28;20174;-53
2023/02/21 07:50:46;;;;;;;6.90;4.70;;;;;;;;;;4991656;28;20220;-53
2023/02/21 07:53:13;;;;;;;5.40;3.93;;;7.10;99.90;;;;;;4991441;28;20204;-53
2023/02/21 07:55:38;;;;;;;4.93;4.00;;;7.00;99.90;;;;;;4991663;28;20260;-53
2023/02/21 07:58:04;;;;;;;5.40;4.43;;;7.00;99.90;;;;;;4991249;28;20702;-53
2023/02/21 08:00:30;;;;;;;5.30;4.40;;;7.40;99.90;;;;;;4988109;28;20186;-53
2023/02/21 08:02:56;;;;;;;5.60;4.23;;;;;;;;;;4987620;28;20232;-53
2023/02/21 08:05:22;;;;;;;6.73;4.00;;;;;;;;;;4991513;28;20188;-53
2023/02/21 08:07:48;;;;;;;5.77;4.33;;;7.20;99.90;;;;;;4991190;28;20204;-55
2023/02/21 08:10:20;;;;;;;5.63;4.40;;;6.70;99.90;;;;;;4991510;28;20209;-53
2023/02/21 08:12:46;;;;;;;6.40;4.50;;;;;;;;;;4991447;28;20205;-55
2023/02/21 08:15:12;;;;;;;6.40;4.40;;;;;;;;;;4991450;28;20247;-53
2023/02/21 08:17:37;;;;;;;4.70;4.30;;;6.80;99.90;;;;;;4990905;28;20185;-55
2023/02/21 08:20:04;;;;;;;4.90;4.40;;;6.70;99.90;;;;;;4991380;28;20185;-52
2023/02/21 08:22:30;;;;;;;6.17;4.57;;;;;;;;;;4995176;28;20201;-54
2023/02/21 08:24:56;;;;;;;8.57;5.10;;;;;;;;;;4995105;28;20181;-55
2023/02/21 08:27:22;;;;;;;6.70;4.23;;;;;;;;;;4994890;28;20736;-53
2023/02/21 08:29:51;;;;;;;6.87;5.17;;;6.90;99.90;;;;;;4995330;28;20575;-52
2023/02/21 08:32:17;;;;;;;5.40;4.03;;;7.30;99.90;;;;;;4994649;28;20205;-53
2023/02/21 08:34:47;;;;;;;5.50;4.37;;;7.70;99.90;;;;;;4990123;28;20265;-54
2023/02/21 08:37:16;;;;;;;6.33;4.80;;;7.40;99.90;;;;;;4993582;28;20177;-54
2023/02/21 08:39:46;;;;;;;5.23;4.40;;;7.80;99.90;;;;;;4994998;28;20184;-53
2023/02/21 08:42:12;;;;;;;5.23;4.40;;;7.70;99.90;;;;;;4994709;28;20597;-53
2023/02/21 08:44:38;;;;;;;6.97;4.50;;;8.10;99.90;;;;;;4995120;28;20603;-53
2023/02/21 08:47:04;;;;;;;5.57;4.30;;;;;;;;;;4994413;28;20214;-53
2023/02/21 08:49:30;;;;;;;6.17;4.40;;;;;;;;;;4994685;28;20212;-53
2023/02/21 08:51:56;;;;;;;4.57;3.87;;;;;;;;;;4993929;28;20670;-55
2023/02/21 08:54:22;;;;;;;5.90;3.80;;;;;;;;;;4994296;28;20529;-55
2023/02/21 08:56:48;;;;;;;5.30;4.13;;;8.50;99.90;;;;;;4994570;28;20663;-54
2023/02/21 08:59:14;;;;;;;5.93;4.23;;;8.70;99.90;;;;;;4994389;28;20181;-52
2023/02/21 09:01:39;;;;;;;5.47;4.30;;;;;;;;;;4994434;28;20189;-53
2023/02/21 09:04:05;;;;;;;6.03;4.20;;;8.70;99.90;;;;;;4993631;28;20185;-53
2023/02/21 09:06:32;;;;;;;5.57;3.97;;;;;;;;;;4994265;28;20201;-52
2023/02/21 09:08:58;;;;;;;6.97;4.03;;;;;;;;;;4994087;28;20706;-52
2023/02/21 09:11:23;;;;;;;4.67;3.97;;;8.90;99.90;;;;;;4994360;28;20205;-53
2023/02/21 09:13:49;;;;;;;5.13;3.90;;;;;;;;;;4994178;28;20272;-55
2023/02/21 09:16:15;;;;;;;3.77;3.20;;;;;;;;;;4994210;28;20189;-55
2023/02/21 09:18:41;;;;;;;3.90;3.17;;;;;;;;;;4993266;28;20212;-55
2023/02/21 09:21:07;;;;;;;4.60;3.80;;;;;;;;;;4994049;28;20763;-53
2023/02/21 09:23:33;;;;;;;6.13;3.90;;;;;;;;;;4993864;28;20193;-52
2023/02/21 09:25:58;;;;;;;7.30;3.90;;;9.00;99.90;;;;;;4994076;28;20659;-52
2023/02/21 09:28:24;;;;;;;4.80;3.50;;;9.10;99.90;;;;;;4993544;28;20648;-55
2023/02/21 09:30:50;;;;;;;5.57;3.63;;;8.80;99.90;;;;;;4992737;28;20174;-56
2023/02/21 09:33:16;;;;;;;4.10;3.50;;;8.80;99.90;;;;;;4991418;28;20307;-54
2023/02/21 09:35:42;;;;;;;5.17;3.77;;;;;;;;;;4992362;28;20572;-56
2023/02/21 09:38:08;;;;;;;5.10;3.50;;;;;;;;;;4992518;28;20264;-56
2023/02/21 09:40:46;;;;;;;5.00;3.50;;;9.30;99.90;;;;;;4993872;28;20601;-52
2023/02/21 09:43:20;;;;;;;5.23;3.73;;;9.50;99.90;;;;;;4990049;28;20213;-55
2023/02/21 09:45:47;;;;;;;5.10;3.80;;;9.50;99.90;;;;;;5000455;28;20234;-55
2023/02/21 09:48:17;;;;;;;4.30;3.90;;;9.30;99.90;;;;;;4994168;28;20192;-52
2023/02/21 09:50:47;;;;;;;5.47;3.83;;;9.40;99.90;;;;;;4999803;28;20204;-54
2023/02/21 09:53:19;;;;;;;4.37;3.97;;;9.30;99.90;;;;;;4996466;28;20201;-53
2023/02/21 09:55:47;;;;;;;4.60;3.60;;;9.30;99.90;;;;;;4998701;28;20236;-54
2023/02/21 09:58:17;;;;;;;4.40;3.67;;;9.20;99.90;;;;;;4993296;28;20185;-55
2023/02/21 10:00:43;;;;;;;6.83;3.80;;;;;;;;;;5001679;28;20270;-55
2023/02/21 10:03:38;;;;;;;6.90;4.13;;;9.90;99.90;;;;;;4992514;28;20315;-53
2023/02/21 10:06:21;;;;;;;5.17;3.80;;;10.50;99.90;;;;;;4993374;28;20224;-54
2023/02/21 10:08:47;;;;;;;4.90;3.67;;;;;;;;;;4993214;28;20698;-56
2023/02/21 10:11:40;;;;;;;5.83;3.97;;;11.20;99.90;;;;;;4993311;28;20181;-52
2023/02/21 10:14:33;;;;;;;5.53;4.10;;;11.00;99.90;;;;;;4993198;28;20185;-55
2023/02/21 10:17:11;;;;;;;4.17;3.70;;;13.30;99.90;;;;;;4956788;28;20209;-55
2023/02/21 10:19:42;;;;;;;5.77;3.73;;;15.00;99.90;;;;;;4992325;28;20185;-56
2023/02/21 10:22:19;;;;;;;5.07;3.70;;;16.90;99.40;;;;;;4992963;28;20241;-56
2023/02/21 10:24:45;;;;;;;4.97;3.73;;;18.60;99.90;;;;;;4992838;28;20265;-55
2023/02/21 10:27:21;;;;;;;4.85;3.72;;;19.90;94.40;;;;;;4992610;28;20534;-55
2023/02/21 10:30:04;;;;;;;7.38;3.60;;;21.10;99.90;;;;;;4992826;28;20196;-56
2023/02/21 10:32:31;;;;;;;4.32;3.30;;;22.30;98.60;;;;;;4992413;28;20197;-54
2023/02/21 10:34:59;;;;;;;4.95;3.38;;;23.30;88.30;;;;;;4993115;28;20177;-55
2023/02/21 10:37:47;;;;;;;4.45;3.40;;;24.20;95.60;;;;;;4992622;28;20256;-53
2023/02/21 10:40:26;;;;;;;3.83;3.03;;;25.00;79.70;;;;;;4992749;28;20627;-57
2023/02/21 10:43:05;;;;;;;4.13;3.10;;;26.20;91.00;;;;;;4992513;28;20204;-51
2023/02/21 10:46:15;;;;;;;3.60;3.30;;;26.70;70.50;;;;;;4992701;28;20635;-53
2023/02/21 10:48:42;;;;;;;4.40;3.20;;;27.30;69.20;;;;;;4912900;29;20216;-50
2023/02/21 10:51:10;;;;;;;3.80;3.40;;;27.20;66.00;;;;;;4976442;28;20186;-54
2023/02/21 10:53:44;;;;;;;3.70;3.30;;;29.80;65.60;;;;;;4992444;28;20584;-54
2023/02/21 10:56:19;;;;;;;5.18;3.35;;;25.40;64.10;;;;;;4992393;28;20180;-53
2023/02/21 10:58:52;;;;;;;3.83;3.30;;;23.10;86.90;;;;;;4992188;28;20180;-53
2023/02/21 11:01:18;;;;;;;5.63;3.67;;;;;;;;;;4992361;28;20260;-54
2023/02/21 11:03:55;;;;;;;3.63;3.33;;;20.70;79.30;;;;;;4991771;28;20283;-53
2023/02/21 11:06:37;;;;;;;4.30;3.90;;;19.30;78.70;;;;;;4992155;28;20264;-52
2023/02/21 11:09:28;;;;;;;6.43;4.10;;;17.70;85.60;;;;;;4992086;28;20241;-52
2023/02/21 11:12:15;;;;;;;6.13;3.70;;;16.50;99.90;;;;;;4992009;28;20256;-52
2023/02/21 11:14:42;;;;;;;3.97;3.57;;;16.50;94.20;;;;;;4992169;28;20252;-55
2023/02/21 11:17:14;;;;;;;4.50;3.80;;;16.80;94.10;;;;;;4991393;28;20228;-52
2023/02/21 11:19:53;;;;;;;4.23;3.80;;;17.70;99.90;;;;;;4991866;28;20181;-53
2023/02/21 11:22:41;;;;;;;5.13;3.70;;;17.70;92.90;;;;;;4991734;28;20240;-56
2023/02/21 11:25:24;;;;;;;5.23;4.00;;;;;;;;;;4991941;28;20184;-52
2023/02/21 11:28:17;;;;;;;4.10;3.50;;;;;;;;;;4974504;28;20181;-53
2023/02/21 11:30:59;;;;;;;4.73;3.60;;;17.50;95.60;;;;;;4991721;28;20623;-52
2023/02/21 11:33:26;;;;;;;4.33;3.80;;;17.20;94.70;;;;;;4991351;28;20196;-54
2023/02/21 11:36:05;;;;;;;5.40;4.00;;;17.00;99.90;;;;;;4991814;28;20656;-54
2023/02/21 11:38:39;;;;;;;4.17;3.63;;;17.30;99.90;;;;;;4978548;28;20242;-53
2023/02/21 11:41:22;;;;;;;4.53;3.80;;;;;;;;;;4993657;28;20181;-52
2023/02/21 11:43:50;;;;;;;4.10;3.43;;;15.80;99.90;;;;;;4991575;28;20674;-54
2023/02/21 11:46:39;;;;;;;4.33;3.70;;;15.30;99.90;;;;;;4991435;28;20256;-56
2023/02/21 11:49:20;;;;;;;5.50;3.93;;;15.10;99.90;;;;;;4990998;28;20207;-54
2023/02/21 11:51:57;;;;;;;4.53;3.40;;;15.90;99.90;;;;;;4991550;28;20197;-53
2023/02/21 11:54:26;;;;;;;4.40;3.43;;;15.60;99.90;;;;;;4992203;28;20180;-53
2023/02/21 11:57:05;;;;;;;5.53;3.50;;;;;;;;;;4997924;28;20533;-55
2023/02/21 11:59:37;;;;;;;3.88;3.45;;;17.60;99.70;;;;;;4994372;28;20252;-53
2023/02/21 12:02:35;;;;;;;4.20;3.42;;;17.80;99.10;;;;;;4994935;28;20214;-52
2023/02/21 12:05:44;;;;;;;4.65;3.53;;;17.10;99.90;;;;;;4996544;28;20205;-59
2023/02/21 12:08:27;;;;;;;5.37;3.40;;;16.00;99.90;;;;;;4976323;28;20751;-55
2023/02/21 12:10:53;;;;;;;3.73;3.20;;;;;;;;;;4978545;28;20625;-58
2023/02/21 12:13:33;;;;;;;3.30;2.90;;;;;;;;;;4978318;28;20217;-55
2023/02/21 12:16:33;;;;;;;4.93;2.87;;;16.50;99.90;;;;;;4978462;28;20185;-52
2023/02/21 12:19:40;;;;;;;3.40;3.00;;;16.40;99.90;;;;;;4978244;28;20199;-52
2023/02/21 12:22:12;;;;;;;4.00;3.10;;;16.50;99.90;;;;;;4970114;28;20201;-52
2023/02/21 12:24:38;;;;;;;3.00;2.70;;;;;;;;;;4978245;28;20374;-59
2023/02/21 12:27:12;;;;;;;3.10;2.80;;;17.10;99.90;;;;;;4978333;28;20272;-53
2023/02/21 12:30:00;;;;;;;3.08;2.88;;;17.00;99.90;;;;;;4978330;28;20202;-54
2023/02/21 12:32:52;;;;;;;2.92;2.65;;;17.40;97.80;;;;;;4978223;28;20173;-58
2023/02/21 12:35:38;;;;;;;4.07;2.77;;;16.90;99.10;;;;;;4978368;28;20189;-53
2023/02/21 12:38:15;;;;;;;3.83;3.10;;;16.60;99.90;;;;;;4978123;28;20174;-52
2023/02/21 12:41:03;;;;;;;4.20;3.40;;;15.90;99.90;;;;;;4966012;28;20600;-52
2023/02/21 12:43:44;;;;;;;3.20;2.90;;;15.80;99.90;;;;;;4978295;28;20192;-56
2023/02/21 12:46:21;;;;;;;4.57;3.90;;;15.10;99.90;;;;;;4978324;28;20174;-54
2023/02/21 12:48:57;;;;;;;3.93;3.20;;;;;;;;;;4978065;28;20189;-54
2023/02/21 12:51:32;;;;;;;3.43;3.13;;;14.60;99.90;;;;;;4978276;28;20588;-56
2023/02/21 12:54:32;;;;;;;3.47;2.97;;;14.40;99.90;;;;;;4978320;28;20213;-55
2023/02/21 12:57:06;;;;;;;2.80;2.60;;;14.90;99.90;;;;;;4918177;29;20203;-53
2023/02/21 12:59:41;;;;;;;3.27;2.80;;;15.10;99.90;;;;;;4918468;29;20183;-53
2023/02/21 13:02:49;;;;;;;3.10;2.80;;;15.30;99.90;;;;;;4918198;29;20183;-55
2023/02/21 13:05:45;;;;;;;3.00;2.63;;;;;;;;;;4917969;29;20200;-53
2023/02/21 13:08:19;;;;;;;3.63;3.00;;;15.50;99.90;;;;;;4857582;29;20222;-53
2023/02/21 13:11:08;;;;;;;3.90;2.97;;;15.60;99.90;;;;;;4859116;29;20215;-53
2023/02/21 13:13:33;;;;;;;4.27;2.97;;;15.10;99.90;;;;;;4858675;29;20210;-52
2023/02/21 13:16:04;;;;;;;2.73;2.50;;;15.60;99.90;;;;;;4858976;29;20206;-54
2023/02/21 13:18:37;;;;;;;2.93;2.63;;;15.10;99.90;;;;;;4858762;29;20222;-52
2023/02/21 13:21:17;;;;;;;2.47;2.27;;;;;;;;;;4858864;29;20191;-52
2023/02/21 13:23:58;;;;;;;2.70;2.50;;;15.20;99.90;;;;;;4858855;29;20213;-53
2023/02/21 13:26:54;;;;;;;3.30;3.00;;;15.10;99.90;;;;;;4858613;29;20218;-52
2023/02/21 13:29:31;;;;;;;3.67;3.07;;;;;;;;;;4856221;29;20262;-53
2023/02/21 13:32:10;;;;;;;3.27;2.70;;;15.60;99.90;;;;;;4858365;29;20216;-55
2023/02/21 13:34:42;;;;;;;3.17;2.57;;;15.50;99.90;;;;;;4910760;29;20307;-52
2023/02/21 13:37:17;;;;;;;2.83;2.63;;;15.10;99.90;;;;;;4897961;29;20560;-55
2023/02/21 13:39:50;;;;;;;3.10;2.63;;;15.00;99.90;;;;;;4894916;29;20176;-59
2023/02/21 13:42:22;;;;;;;3.00;2.70;;;14.80;99.90;;;;;;4896132;29;20336;-57
2023/02/21 13:44:52;;;;;;;2.80;2.60;;;14.80;99.90;;;;;;4942193;28;20278;-59
2023/02/21 13:47:20;;;;;;;2.73;2.47;;;14.80;99.90;;;;;;4973718;28;20186;-55
2023/02/21 13:49:47;;;;;;;3.03;2.70;;;;;;;;;;4974435;28;20555;-54
2023/02/21 13:52:27;;;;;;;2.50;2.30;;;14.50;99.90;;;;;;4974381;28;20188;-54
2023/02/21 13:55:08;;;;;;;2.80;2.50;;;;;;;;;;4974244;28;20198;-55
2023/02/21 13:57:37;;;;;;;4.53;2.50;;;14.20;99.90;;;;;;4973971;28;20174;-52
2023/02/21 14:00:23;;;;;;;3.30;2.50;;;14.90;99.90;;;;;;4974203;28;20241;-54
2023/02/21 14:03:08;;;;;;;2.40;2.20;;;15.20;99.90;;;;;;4973754;28;20178;-52
2023/02/21 14:05:46;;;;;;;2.60;2.40;;;15.70;99.90;;;;;;4973981;28;20185;-52
2023/02/21 14:08:21;;;;;;;2.30;2.20;;;15.60;99.90;;;;;;4973667;28;20186;-53
2023/02/21 14:10:54;;;;;;;2.30;2.10;;;;;;;;;;4974408;28;20316;-57
2023/02/21 14:13:38;;;;;;;2.53;2.33;;;15.30;99.90;;;;;;4973846;28;20673;-54
2023/02/21 14:16:06;;;;;;;2.77;2.20;;;15.00;99.90;;;;;;4974001;28;20169;-54
2023/02/21 14:18:38;;;;;;;2.30;2.10;;;15.20;99.90;;;;;;4973373;28;20170;-55
2023/02/21 14:21:22;;;;;;;2.77;2.20;;;;;;;;;;4973785;28;20222;-55
2023/02/21 14:24:01;;;;;;;2.77;2.23;;;;;;;;;;4973737;28;20186;-56
2023/02/21 14:26:46;;;;;;;2.20;2.00;;;;;;;;;;4973688;28;20170;-52
2023/02/21 14:29:32;;;;;;;2.10;2.00;;;14.80;99.90;;;;;;4973340;28;20206;-56
2023/02/21 14:32:03;;;;;;;2.57;2.30;;;17.40;99.90;;;;;;4973538;28;20182;-58
2023/02/21 14:34:32;;;;;;;3.07;2.57;;;15.00;99.90;;;;;;4972552;28;20205;-55
2023/02/21 14:37:04;;;;;;;2.17;1.97;;;15.20;99.90;;;;;;4981428;28;20703;-54
2023/02/21 14:39:34;;;;;;;3.80;2.20;;;15.30;99.90;;;;;;4993061;28;20173;-59
2023/02/21 14:42:19;;;;;;;2.40;2.17;;;;;;;;;;4992994;28;20625;-55
2023/02/21 14:45:03;;;;;;;2.90;2.70;;;;;;;;;;4992712;28;20194;-58
2023/02/21 14:47:47;;;;;;;2.93;2.67;;;;;;;;;;4992536;28;20209;-54
2023/02/21 14:50:50;;;;;;;2.30;2.10;;;15.60;99.90;;;;;;4992705;28;20714;-55
2023/02/21 14:53:16;;;;;;;2.57;2.37;;;;;;;;;;4992781;28;20173;-53
2023/02/21 14:56:03;;;;;;;2.43;2.23;;;16.30;99.90;;;;;;4992710;28;20176;-52
2023/02/21 14:58:29;;;;;;;2.33;2.13;;;;;;;;;;4971697;28;20182;-62
2023/02/21 15:01:24;;;;;;;3.17;2.43;;;;;;;;;;4972765;28;20201;-52
2023/02/21 15:03:50;;;;;;;3.03;2.33;;;;;;;;;;4980841;28;20569;-54
2023/02/21 15:06:21;;;;;;;3.53;2.70;;;16.40;99.90;;;;;;4983117;28;20205;-54
2023/02/21 15:08:49;;;;;;;3.10;2.57;;;16.70;99.90;;;;;;4985253;28;20191;-52
2023/02/21 15:11:23;;;;;;;2.37;2.17;;;16.90;99.90;;;;;;4972707;28;20359;-52
2023/02/21 15:14:13;;;;;;;2.70;2.47;;;16.80;99.90;;;;;;4972706;28;20207;-52
2023/02/21 15:16:45;;;;;;;2.53;2.33;;;17.60;99.90;;;;;;4966906;28;20170;-52
2023/02/21 15:19:32;;;;;;;2.30;2.10;;;;;;;;;;4972617;28;20243;-52
2023/02/21 15:22:13;;;;;;;2.57;2.20;;;;;;;;;;4972774;28;20638;-53
2023/02/21 15:24:40;;;;;;;2.77;2.17;;;;;;;;;;4972644;28;20189;-51
2023/02/21 15:27:13;;;;;;;2.27;2.07;;;;;;;;;;4971503;28;20178;-54
2023/02/21 15:29:39;;;;;;;2.30;2.10;;;17.90;99.90;;;;;;4970922;28;20206;-58
2023/02/21 15:32:06;;;;;;;2.00;1.90;;;18.00;99.90;;;;;;4971179;28;20272;-51
2023/02/21 15:34:42;;;;;;;2.87;2.53;;;;;;;;;;4971511;28;20205;-52
2023/02/21 15:37:24;;;;;;;2.70;2.50;;;18.50;99.90;;;;;;4972082;28;20668;-52
2023/02/21 15:40:04;;;;;;;2.43;2.17;;;18.40;99.90;;;;;;4972417;28;20201;-52
2023/02/21 15:42:31;;;;;;;2.67;2.03;;;18.40;99.90;;;;;;4971957;28;20182;-57
2023/02/21 15:45:04;;;;;;;3.03;2.70;;;18.50;99.90;;;;;;4972357;28;20233;-52
2023/02/21 15:47:34;;;;;;;2.77;2.47;;;18.30;99.90;;;;;;4972256;28;20709;-53
2023/02/21 15:50:00;;;;;;;2.73;2.40;;;;;;;;;;4972370;28;20654;-52
2023/02/21 15:52:28;;;;;;;2.10;1.90;;;18.60;99.90;;;;;;4972407;28;20198;-52
2023/02/21 15:55:19;;;;;;;2.30;2.10;;;18.60;99.90;;;;;;4972041;28;20205;-54
2023/02/21 15:57:44;;;;;;;2.23;2.03;;;19.00;99.90;;;;;;4971825;28;20170;-54
2023/02/21 16:00:19;;;;;;;2.53;2.03;;;18.60;99.90;;;;;;4972319;28;20265;-54
2023/02/21 16:02:44;;;;;;;2.50;2.10;;;18.10;99.90;;;;;;4971748;28;20181;-54
2023/02/21 16:05:30;;;;;;;4.13;2.30;;;;;;;;;;4971697;28;20214;-57
2023/02/21 16:08:04;;;;;;;2.67;2.20;;;18.40;99.90;;;;;;4971828;28;20563;-52
2023/02/21 16:10:31;;;;;;;2.60;2.40;;;18.20;99.90;;;;;;4971971;28;20207;-52